sensor_id;sensor_type;location;lat;lon;timestamp;pressure;altitude;pressure_sealevel;temperature;humidity
73910;BME280;62245;48.070;7.874;2024-03-25T00:01:19;98576.00;;;5.97;84.48
73910;BME280;62245;48.070;7.874;2024-03-25T00:03:44;98572.81;;;6.02;84.55
73910;BME280;62245;48.070;7.874;2024-03-25T00:06:10;98572.81;;;6.02;84.73
73910;BME280;62245;48.070;7.874;2024-03-25T00:08:35;98578.44;;;5.92;85.41
73910;BME280;62245;48.070;7.874;2024-03-25T00:11:01;98572.75;;;5.95;85.63
73910;BME280;62245;48.070;7.874;2024-03-25T00:13:26;98570.13;;;5.95;85.77
73910;BME280;62245;48.070;7.874;2024-03-25T00:15:52;98578.94;;;6.02;85.05
73910;BME280;62245;48.070;7.874;2024-03-25T00:18:17;98567.88;;;5.99;85.29
73910;BME280;62245;48.070;7.874;2024-03-25T00:20:42;98568.97;;;6.04;85.76
73910;BME280;62245;48.070;7.874;2024-03-25T00:23:08;98566.56;;;6.10;85.39
73910;BME280;62245;48.070;7.874;2024-03-25T00:25:33;98566.94;;;6.06;85.44
73910;BME280;62245;48.070;7.874;2024-03-25T00:27:58;98553.41;;;5.95;85.64
73910;BME280;62245;48.070;7.874;2024-03-25T00:30:24;98556.47;;;5.98;86.22
73910;BME280;62245;48.070;7.874;2024-03-25T00:32:49;98555.22;;;5.94;86.09
73910;BME280;62245;48.070;7.874;2024-03-25T00:35:15;98560.91;;;5.91;86.44
73910;BME280;62245;48.070;7.874;2024-03-25T00:37:40;98565.41;;;5.97;86.24
73910;BME280;62245;48.070;7.874;2024-03-25T00:40:06;98563.81;;;5.96;85.84
73910;BME280;62245;48.070;7.874;2024-03-25T00:42:32;98564.19;;;5.93;86.30
73910;BME280;62245;48.070;7.874;2024-03-25T00:44:57;98562.41;;;6.00;86.69
73910;BME280;62245;48.070;7.874;2024-03-25T00:47:23;98565.88;;;6.01;86.20
73910;BME280;62245;48.070;7.874;2024-03-25T00:49:48;98561.25;;;6.10;85.40
73910;BME280;62245;48.070;7.874;2024-03-25T00:52:13;98553.09;;;6.04;85.33
73910;BME280;62245;48.070;7.874;2024-03-25T00:54:39;98569.44;;;6.15;85.43
73910;BME280;62245;48.070;7.874;2024-03-25T00:57:04;98562.31;;;6.15;85.36
73910;BME280;62245;48.070;7.874;2024-03-25T00:59:29;98546.00;;;6.12;84.95
73910;BME280;62245;48.070;7.874;2024-03-25T04:02:32;98465.66;;;5.49;91.42
73910;BME280;62245;48.070;7.874;2024-03-25T04:04:57;98450.13;;;5.46;91.26
73910;BME280;62245;48.070;7.874;2024-03-25T04:07:22;98455.69;;;5.51;91.09
73910;BME280;62245;48.070;7.874;2024-03-25T04:09:53;98454.28;;;5.55;91.01
73910;BME280;62245;48.070;7.874;2024-03-25T04:12:19;98451.91;;;5.60;90.88
73910;BME280;62245;48.070;7.874;2024-03-25T04:14:46;98452.31;;;5.63;90.70
73910;BME280;62245;48.070;7.874;2024-03-25T04:17:12;98445.19;;;5.64;90.77
73910;BME280;62245;48.070;7.874;2024-03-25T04:19:37;98444.59;;;5.62;90.22
73910;BME280;62245;48.070;7.874;2024-03-25T04:22:02;98447.84;;;5.64;90.30
73910;BME280;62245;48.070;7.874;2024-03-25T04:24:28;98442.56;;;5.64;90.22
73910;BME280;62245;48.070;7.874;2024-03-25T04:26:53;98434.00;;;5.62;89.67
73910;BME280;62245;48.070;7.874;2024-03-25T04:29:19;98437.22;;;5.57;89.53
73910;BME280;62245;48.070;7.874;2024-03-25T04:31:44;98434.75;;;5.56;89.83
73910;BME280;62245;48.070;7.874;2024-03-25T04:34:10;98423.34;;;5.55;89.63
73910;BME280;62245;48.070;7.874;2024-03-25T04:36:36;98420.53;;;5.57;89.54
73910;BME280;62245;48.070;7.874;2024-03-25T04:39:01;98410.31;;;5.54;88.97
73910;BME280;62245;48.070;7.874;2024-03-25T04:41:26;98401.91;;;5.44;89.43
73910;BME280;62245;48.070;7.874;2024-03-25T04:43:51;98410.72;;;5.51;89.17
73910;BME280;62245;48.070;7.874;2024-03-25T04:46:17;98418.03;;;5.49;89.23
73910;BME280;62245;48.070;7.874;2024-03-25T04:48:42;98412.50;;;5.44;89.25
73910;BME280;62245;48.070;7.874;2024-03-25T04:51:07;98409.03;;;5.43;89.10
73910;BME280;62245;48.070;7.874;2024-03-25T04:53:34;98408.44;;;5.48;88.99
73910;BME280;62245;48.070;7.874;2024-03-25T04:55:59;98410.47;;;5.46;89.09
73910;BME280;62245;48.070;7.874;2024-03-25T04:58:24;98411.88;;;5.42;89.03
73910;BME280;62245;48.070;7.874;2024-03-25T05:00:50;98410.28;;;5.47;89.39
73910;BME280;62245;48.070;7.874;2024-03-25T05:03:15;98407.44;;;5.49;89.14
73910;BME280;62245;48.070;7.874;2024-03-25T05:05:40;98408.06;;;5.51;89.38
73910;BME280;62245;48.070;7.874;2024-03-25T05:08:06;98415.38;;;5.49;89.31
73910;BME280;62245;48.070;7.874;2024-03-25T05:10:31;98407.44;;;5.49;89.07
73910;BME280;62245;48.070;7.874;2024-03-25T05:12:56;98415.56;;;5.47;89.23
73910;BME280;62245;48.070;7.874;2024-03-25T05:15:22;98415.16;;;5.44;89.04
73910;BME280;62245;48.070;7.874;2024-03-25T05:17:47;98421.03;;;5.46;88.99
73910;BME280;62245;48.070;7.874;2024-03-25T05:20:13;98418.78;;;5.43;89.22
73910;BME280;62245;48.070;7.874;2024-03-25T05:22:38;98417.97;;;5.42;89.27
73910;BME280;62245;48.070;7.874;2024-03-25T05:25:03;98415.53;;;5.41;89.27
73910;BME280;62245;48.070;7.874;2024-03-25T05:27:29;98415.72;;;5.39;89.32
73910;BME280;62245;48.070;7.874;2024-03-25T05:29:54;98411.41;;;5.38;89.47
73910;BME280;62245;48.070;7.874;2024-03-25T05:32:19;98413.06;;;5.39;89.44
73910;BME280;62245;48.070;7.874;2024-03-25T05:34:46;98411.41;;;5.38;89.31
73910;BME280;62245;48.070;7.874;2024-03-25T05:37:12;98411.19;;;5.33;89.04
73910;BME280;62245;48.070;7.874;2024-03-25T05:39:37;98408.34;;;5.35;89.06
73910;BME280;62245;48.070;7.874;2024-03-25T05:42:03;98408.09;;;5.29;89.21
73910;BME280;62245;48.070;7.874;2024-03-25T05:44:28;98416.44;;;5.26;88.94
73910;BME280;62245;48.070;7.874;2024-03-25T05:46:53;98408.41;;;5.20;88.93
73910;BME280;62245;48.070;7.874;2024-03-25T05:49:18;98414.16;;;5.23;89.05
73910;BME280;62245;48.070;7.874;2024-03-25T05:51:44;98415.53;;;5.19;88.85
73910;BME280;62245;48.070;7.874;2024-03-25T05:54:09;98417.16;;;5.20;89.20
73910;BME280;62245;48.070;7.874;2024-03-25T05:56:34;98412.88;;;5.19;89.36
73910;BME280;62245;48.070;7.874;2024-03-25T05:59:00;98419.44;;;5.23;89.03
73910;BME280;62245;48.070;7.874;2024-03-25T06:01:26;98407.59;;;5.19;89.42
73910;BME280;62245;48.070;7.874;2024-03-25T06:03:54;98415.78;;;5.24;89.45
73910;BME280;62245;48.070;7.874;2024-03-25T06:06:20;98417.63;;;5.24;89.56
73910;BME280;62245;48.070;7.874;2024-03-25T06:08:45;98399.47;;;5.21;89.03
73910;BME280;62245;48.070;7.874;2024-03-25T06:11:10;98411.50;;;5.23;89.21
73910;BME280;62245;48.070;7.874;2024-03-25T06:13:36;98413.34;;;5.23;88.73
73910;BME280;62245;48.070;7.874;2024-03-25T06:16:01;98406.81;;;5.19;88.13
73910;BME280;62245;48.070;7.874;2024-03-25T06:18:26;98420.22;;;5.17;88.69
73910;BME280;62245;48.070;7.874;2024-03-25T06:20:52;98419.00;;;5.20;88.58
73910;BME280;62245;48.070;7.874;2024-03-25T06:23:24;98418.56;;;5.16;87.75
73910;BME280;62245;48.070;7.874;2024-03-25T06:25:50;98410.47;;;5.18;87.85
73910;BME280;62245;48.070;7.874;2024-03-25T06:28:16;98392.88;;;5.10;87.86
73910;BME280;62245;48.070;7.874;2024-03-25T06:30:41;98402.13;;;5.21;87.53
73910;BME280;62245;48.070;7.874;2024-03-25T06:33:36;98397.84;;;5.20;87.07
73910;BME280;62245;48.070;7.874;2024-03-25T06:36:21;98394.63;;;5.24;86.99
73910;BME280;62245;48.070;7.874;2024-03-25T06:38:46;98389.34;;;5.24;87.06
73910;BME280;62245;48.070;7.874;2024-03-25T06:41:12;98391.81;;;5.26;86.69
73910;BME280;62245;48.070;7.874;2024-03-25T06:43:37;98390.34;;;5.23;86.42
73910;BME280;62245;48.070;7.874;2024-03-25T06:46:03;98382.06;;;5.26;86.74
73910;BME280;62245;48.070;7.874;2024-03-25T06:48:29;98380.00;;;5.28;86.46
73910;BME280;62245;48.070;7.874;2024-03-25T06:50:55;98373.91;;;5.28;86.83
73910;BME280;62245;48.070;7.874;2024-03-25T06:53:21;98371.31;;;5.35;86.88
73910;BME280;62245;48.070;7.874;2024-03-25T06:55:52;98373.19;;;5.41;86.55
73910;BME280;62245;48.070;7.874;2024-03-25T06:58:19;98373.19;;;5.41;86.04
73910;BME280;62245;48.070;7.874;2024-03-25T07:00:44;98368.13;;;5.46;86.38
73910;BME280;62245;48.070;7.874;2024-03-25T07:03:10;98366.75;;;5.50;85.81
73910;BME280;62245;48.070;7.874;2024-03-25T07:05:35;98360.03;;;5.54;85.72
73910;BME280;62245;48.070;7.874;2024-03-25T07:08:00;98350.91;;;5.56;85.75
73910;BME280;62245;48.070;7.874;2024-03-25T07:10:25;98355.03;;;5.65;85.15
73910;BME280;62245;48.070;7.874;2024-03-25T07:12:51;98355.47;;;5.69;84.91
73910;BME280;62245;48.070;7.874;2024-03-25T07:15:16;98352.22;;;5.74;84.82
73910;BME280;62245;48.070;7.874;2024-03-25T07:17:41;98351.84;;;5.77;84.82
73910;BME280;62245;48.070;7.874;2024-03-25T07:20:07;98353.91;;;5.81;84.90
73910;BME280;62245;48.070;7.874;2024-03-25T07:22:33;98356.78;;;5.86;85.20
73910;BME280;62245;48.070;7.874;2024-03-25T07:24:59;98345.63;;;5.91;85.27
73910;BME280;62245;48.070;7.874;2024-03-25T07:27:24;98353.59;;;5.97;85.16
73910;BME280;62245;48.070;7.874;2024-03-25T07:29:49;98346.91;;;6.01;84.62
73910;BME280;62245;48.070;7.874;2024-03-25T07:32:15;98343.47;;;6.07;84.83
73910;BME280;62245;48.070;7.874;2024-03-25T07:34:40;98328.81;;;6.12;84.51
73910;BME280;62245;48.070;7.874;2024-03-25T07:37:06;98324.38;;;6.19;84.29
73910;BME280;62245;48.070;7.874;2024-03-25T07:39:31;98325.59;;;6.23;84.41
73910;BME280;62245;48.070;7.874;2024-03-25T07:41:56;98321.97;;;6.30;84.01
73910;BME280;62245;48.070;7.874;2024-03-25T07:44:21;98324.44;;;6.38;83.96
73910;BME280;62245;48.070;7.874;2024-03-25T07:46:47;98323.00;;;6.49;83.67
73910;BME280;62245;48.070;7.874;2024-03-25T07:49:12;98324.06;;;6.55;82.71
73910;BME280;62245;48.070;7.874;2024-03-25T07:51:37;98314.47;;;6.67;82.48
73910;BME280;62245;48.070;7.874;2024-03-25T07:54:04;98321.66;;;6.73;82.45
73910;BME280;62245;48.070;7.874;2024-03-25T07:56:29;98312.69;;;6.80;81.32
73910;BME280;62245;48.070;7.874;2024-03-25T07:58:57;98304.31;;;6.83;81.34
73910;BME280;62245;48.070;7.874;2024-03-25T08:01:24;98307.38;;;6.94;80.91
73910;BME280;62245;48.070;7.874;2024-03-25T08:03:50;98306.16;;;7.03;81.12
73910;BME280;62245;48.070;7.874;2024-03-25T08:06:15;98306.34;;;7.14;80.50
73910;BME280;62245;48.070;7.874;2024-03-25T08:08:40;98306.75;;;7.31;80.05
73910;BME280;62245;48.070;7.874;2024-03-25T08:11:06;98306.53;;;7.39;79.68
73910;BME280;62245;48.070;7.874;2024-03-25T08:13:32;98300.78;;;7.55;78.54
73910;BME280;62245;48.070;7.874;2024-03-25T08:15:57;98302.78;;;7.67;78.24
73910;BME280;62245;48.070;7.874;2024-03-25T08:18:23;98305.59;;;7.85;78.11
73910;BME280;62245;48.070;7.874;2024-03-25T08:20:48;98301.44;;;8.02;76.16
73910;BME280;62245;48.070;7.874;2024-03-25T08:23:13;98294.03;;;8.17;76.37
73910;BME280;62245;48.070;7.874;2024-03-25T08:25:38;98285.56;;;8.33;75.53
73910;BME280;62245;48.070;7.874;2024-03-25T08:28:04;98283.88;;;8.46;73.91
73910;BME280;62245;48.070;7.874;2024-03-25T08:30:30;98279.69;;;8.56;73.30
73910;BME280;62245;48.070;7.874;2024-03-25T08:32:55;98272.81;;;8.74;72.56
73910;BME280;62245;48.070;7.874;2024-03-25T08:35:20;98268.84;;;8.89;71.58
73910;BME280;62245;48.070;7.874;2024-03-25T08:37:45;98275.41;;;9.12;71.28
73910;BME280;62245;48.070;7.874;2024-03-25T08:40:11;98266.34;;;9.37;69.65
73910;BME280;62245;48.070;7.874;2024-03-25T08:42:36;98262.66;;;9.57;69.67
73910;BME280;62245;48.070;7.874;2024-03-25T08:45:02;98257.44;;;9.68;68.08
73910;BME280;62245;48.070;7.874;2024-03-25T08:47:27;98256.56;;;9.86;66.32
73910;BME280;62245;48.070;7.874;2024-03-25T08:49:52;98245.13;;;10.15;65.47
73910;BME280;62245;48.070;7.874;2024-03-25T08:52:18;98242.19;;;10.24;64.01
73910;BME280;62245;48.070;7.874;2024-03-25T08:54:43;98245.63;;;10.42;62.28
73910;BME280;62245;48.070;7.874;2024-03-25T08:57:08;98233.75;;;10.80;61.21
73910;BME280;62245;48.070;7.874;2024-03-25T08:59:34;98235.03;;;11.12;61.05
73910;BME280;62245;48.070;7.874;2024-03-25T09:01:59;98237.22;;;11.50;59.93
73910;BME280;62245;48.070;7.874;2024-03-25T09:04:24;98226.97;;;11.70;56.29
73910;BME280;62245;48.070;7.874;2024-03-25T09:06:49;98220.22;;;11.68;56.69
73910;BME280;62245;48.070;7.874;2024-03-25T09:09:15;98221.84;;;12.37;55.60
73910;BME280;62245;48.070;7.874;2024-03-25T09:11:59;98223.44;;;12.83;54.05
73910;BME280;62245;48.070;7.874;2024-03-25T09:14:24;98214.56;;;13.33;52.91
73910;BME280;62245;48.070;7.874;2024-03-25T09:16:49;98218.47;;;13.86;51.33
73910;BME280;62245;48.070;7.874;2024-03-25T09:19:15;98214.84;;;13.97;50.37
73910;BME280;62245;48.070;7.874;2024-03-25T09:21:40;98204.41;;;14.49;49.44
73910;BME280;62245;48.070;7.874;2024-03-25T09:24:06;98202.38;;;15.35;47.36
73910;BME280;62245;48.070;7.874;2024-03-25T09:26:31;98200.63;;;15.56;45.56
73910;BME280;62245;48.070;7.874;2024-03-25T09:28:56;98197.44;;;15.64;44.60
73910;BME280;62245;48.070;7.874;2024-03-25T09:31:22;98185.81;;;16.31;43.01
73910;BME280;62245;48.070;7.874;2024-03-25T09:33:47;98184.78;;;16.83;42.30
73910;BME280;62245;48.070;7.874;2024-03-25T09:36:12;98182.06;;;16.88;42.01
73910;BME280;62245;48.070;7.874;2024-03-25T09:38:38;98183.94;;;17.18;40.85
73910;BME280;62245;48.070;7.874;2024-03-25T09:41:03;98184.00;;;17.82;40.23
73910;BME280;62245;48.070;7.874;2024-03-25T09:43:48;98174.28;;;19.03;37.83
73910;BME280;62245;48.070;7.874;2024-03-25T09:46:15;98165.97;;;19.95;36.02
73910;BME280;62245;48.070;7.874;2024-03-25T09:48:41;98163.47;;;20.74;34.37
73910;BME280;62245;48.070;7.874;2024-03-25T09:51:07;98152.56;;;21.38;33.37
73910;BME280;62245;48.070;7.874;2024-03-25T09:53:34;98159.72;;;22.25;32.28
73910;BME280;62245;48.070;7.874;2024-03-25T09:56:00;98155.69;;;23.03;32.00
73910;BME280;62245;48.070;7.874;2024-03-25T09:58:26;98144.75;;;23.56;30.62
73910;BME280;62245;48.070;7.874;2024-03-25T10:00:52;98138.50;;;24.30;29.54
73910;BME280;62245;48.070;7.874;2024-03-25T10:03:18;98137.13;;;25.13;28.40
73910;BME280;62245;48.070;7.874;2024-03-25T10:05:43;98139.84;;;25.51;26.99
73910;BME280;62245;48.070;7.874;2024-03-25T10:08:08;98140.44;;;26.45;26.44
73910;BME280;62245;48.070;7.874;2024-03-25T10:10:34;98135.44;;;27.25;26.07
73910;BME280;62245;48.070;7.874;2024-03-25T10:15:37;98127.34;;;26.30;27.01
73910;BME280;62245;48.070;7.874;2024-03-25T10:18:03;98113.19;;;27.15;26.23
73910;BME280;62245;48.070;7.874;2024-03-25T10:20:28;98109.47;;;26.53;26.25
73910;BME280;62245;48.070;7.874;2024-03-25T10:22:54;98115.69;;;24.08;28.59
73910;BME280;62245;48.070;7.874;2024-03-25T10:25:30;98108.72;;;23.51;30.28
73910;BME280;62245;48.070;7.874;2024-03-25T10:28:00;98104.91;;;21.05;33.14
73910;BME280;62245;48.070;7.874;2024-03-25T10:30:26;98104.00;;;19.93;34.40
73910;BME280;62245;48.070;7.874;2024-03-25T10:32:58;98094.97;;;19.13;35.48
73910;BME280;62245;48.070;7.874;2024-03-25T10:35:28;98086.31;;;18.63;36.03
73910;BME280;62245;48.070;7.874;2024-03-25T10:37:56;98080.22;;;18.42;36.84
73910;BME280;62245;48.070;7.874;2024-03-25T10:40:27;98067.41;;;17.90;37.13
73910;BME280;62245;48.070;7.874;2024-03-25T10:43:01;98073.19;;;17.09;38.24
73910;BME280;62245;48.070;7.874;2024-03-25T10:45:31;98046.69;;;17.26;38.15
73910;BME280;62245;48.070;7.874;2024-03-25T10:48:00;98046.00;;;16.95;39.01
73910;BME280;62245;48.070;7.874;2024-03-25T10:50:30;98047.91;;;16.95;38.54
73910;BME280;62245;48.070;7.874;2024-03-25T10:52:57;98041.38;;;17.11;39.53
73910;BME280;62245;48.070;7.874;2024-03-25T10:55:23;98038.66;;;17.16;39.50
73910;BME280;62245;48.070;7.874;2024-03-25T10:57:50;98041.94;;;17.03;39.61
73910;BME280;62245;48.070;7.874;2024-03-25T11:00:17;98026.25;;;17.15;39.20
73910;BME280;62245;48.070;7.874;2024-03-25T11:02:45;98022.66;;;16.55;37.55
73910;BME280;62245;48.070;7.874;2024-03-25T11:05:11;98014.09;;;16.23;39.11
73910;BME280;62245;48.070;7.874;2024-03-25T11:07:37;98009.75;;;16.37;40.41
73910;BME280;62245;48.070;7.874;2024-03-25T11:10:07;98003.53;;;16.62;41.31
73910;BME280;62245;48.070;7.874;2024-03-25T11:12:38;97988.19;;;16.52;39.95
73910;BME280;62245;48.070;7.874;2024-03-25T11:15:05;97988.94;;;16.78;41.04
73910;BME280;62245;48.070;7.874;2024-03-25T11:17:32;97977.84;;;16.90;41.20
73910;BME280;62245;48.070;7.874;2024-03-25T11:22:33;97972.31;;;16.46;38.90
73910;BME280;62245;48.070;7.874;2024-03-25T11:25:05;97965.84;;;16.67;40.68
73910;BME280;62245;48.070;7.874;2024-03-25T11:27:32;97960.38;;;16.82;40.20
73910;BME280;62245;48.070;7.874;2024-03-25T11:29:57;97958.44;;;16.98;40.10
73910;BME280;62245;48.070;7.874;2024-03-25T11:32:23;97948.84;;;16.77;40.88
73910;BME280;62245;48.070;7.874;2024-03-25T11:34:52;97944.50;;;16.81;40.38
73910;BME280;62245;48.070;7.874;2024-03-25T11:37:17;97947.16;;;16.91;40.05
73910;BME280;62245;48.070;7.874;2024-03-25T11:39:43;97938.88;;;16.72;41.02
73910;BME280;62245;48.070;7.874;2024-03-25T11:42:08;97929.97;;;16.77;41.49
73910;BME280;62245;48.070;7.874;2024-03-25T11:44:37;97926.75;;;16.75;41.62
73910;BME280;62245;48.070;7.874;2024-03-25T11:47:03;97928.81;;;15.98;42.08
73910;BME280;62245;48.070;7.874;2024-03-25T11:49:30;97937.91;;;16.22;42.46
73910;BME280;62245;48.070;7.874;2024-03-25T11:51:58;97924.16;;;16.29;42.77
73910;BME280;62245;48.070;7.874;2024-03-25T11:54:27;97926.09;;;16.23;41.77
73910;BME280;62245;48.070;7.874;2024-03-25T11:56:53;97901.59;;;16.20;40.87
73910;BME280;62245;48.070;7.874;2024-03-25T11:59:19;97906.50;;;15.77;41.59
73910;BME280;62245;48.070;7.874;2024-03-25T12:01:44;97893.56;;;16.05;41.90
73910;BME280;62245;48.070;7.874;2024-03-25T12:04:16;97894.94;;;15.82;40.17
73910;BME280;62245;48.070;7.874;2024-03-25T12:06:41;97882.53;;;15.96;41.48
73910;BME280;62245;48.070;7.874;2024-03-25T12:09:07;97869.88;;;16.07;42.77
73910;BME280;62245;48.070;7.874;2024-03-25T12:11:51;97870.72;;;15.97;41.42
73910;BME280;62245;48.070;7.874;2024-03-25T12:14:16;97868.72;;;16.28;44.09
73910;BME280;62245;48.070;7.874;2024-03-25T12:16:42;97866.63;;;16.10;42.72
73910;BME280;62245;48.070;7.874;2024-03-25T12:19:07;97865.06;;;15.99;41.48
73910;BME280;62245;48.070;7.874;2024-03-25T12:21:33;97855.78;;;16.35;43.45
73910;BME280;62245;48.070;7.874;2024-03-25T12:23:59;97845.59;;;16.27;42.19
73910;BME280;62245;48.070;7.874;2024-03-25T12:26:24;97840.19;;;16.32;39.97
73910;BME280;62245;48.070;7.874;2024-03-25T12:28:50;97840.63;;;16.54;46.56
73910;BME280;62245;48.070;7.874;2024-03-25T12:31:15;97819.72;;;16.41;41.25
73910;BME280;62245;48.070;7.874;2024-03-25T12:33:42;97820.16;;;16.58;42.32
73910;BME280;62245;48.070;7.874;2024-03-25T12:36:07;97812.59;;;16.60;41.88
73910;BME280;62245;48.070;7.874;2024-03-25T12:38:33;97813.41;;;16.61;42.62
73910;BME280;62245;48.070;7.874;2024-03-25T12:41:06;97805.56;;;16.70;41.77
73910;BME280;62245;48.070;7.874;2024-03-25T12:43:32;97792.41;;;16.68;42.66
73910;BME280;62245;48.070;7.874;2024-03-25T12:45:58;97788.31;;;16.76;42.42
73910;BME280;62245;48.070;7.874;2024-03-25T12:48:24;97778.69;;;16.59;41.70
73910;BME280;62245;48.070;7.874;2024-03-25T12:50:49;97771.22;;;16.46;41.50
73910;BME280;62245;48.070;7.874;2024-03-25T12:53:17;97767.44;;;16.47;42.51
73910;BME280;62245;48.070;7.874;2024-03-25T12:55:43;97760.44;;;16.51;41.39
73910;BME280;62245;48.070;7.874;2024-03-25T12:58:08;97768.28;;;16.43;42.52
73910;BME280;62245;48.070;7.874;2024-03-25T13:00:34;97754.19;;;16.56;44.01
73910;BME280;62245;48.070;7.874;2024-03-25T13:02:59;97753.25;;;16.81;42.91
73910;BME280;62245;48.070;7.874;2024-03-25T13:05:25;97744.16;;;16.72;41.79
73910;BME280;62245;48.070;7.874;2024-03-25T13:07:50;97742.81;;;16.25;42.31
73910;BME280;62245;48.070;7.874;2024-03-25T13:10:15;97733.63;;;16.31;43.33
73910;BME280;62245;48.070;7.874;2024-03-25T13:12:41;97729.44;;;16.54;43.09
73910;BME280;62245;48.070;7.874;2024-03-25T13:15:06;97735.47;;;16.80;43.04
73910;BME280;62245;48.070;7.874;2024-03-25T13:17:32;97728.56;;;16.25;41.82
73910;BME280;62245;48.070;7.874;2024-03-25T13:19:57;97722.16;;;16.59;42.22
73910;BME280;62245;48.070;7.874;2024-03-25T13:22:22;97715.63;;;16.71;41.89
73910;BME280;62245;48.070;7.874;2024-03-25T13:24:48;97723.66;;;16.76;42.43
73910;BME280;62245;48.070;7.874;2024-03-25T13:27:13;97716.06;;;16.83;41.89
73910;BME280;62245;48.070;7.874;2024-03-25T13:29:38;97709.34;;;16.80;42.41
73910;BME280;62245;48.070;7.874;2024-03-25T13:32:04;97698.25;;;16.87;42.22
73910;BME280;62245;48.070;7.874;2024-03-25T13:34:29;97695.69;;;16.72;41.58
73910;BME280;62245;48.070;7.874;2024-03-25T13:36:54;97692.53;;;16.59;41.79
73910;BME280;62245;48.070;7.874;2024-03-25T13:39:20;97693.38;;;16.89;42.66
73910;BME280;62245;48.070;7.874;2024-03-25T13:41:45;97679.91;;;16.89;42.09
73910;BME280;62245;48.070;7.874;2024-03-25T13:44:10;97668.03;;;16.95;40.89
73910;BME280;62245;48.070;7.874;2024-03-25T13:46:36;97667.25;;;16.89;41.88
73910;BME280;62245;48.070;7.874;2024-03-25T13:49:01;97664.59;;;17.13;41.73
73910;BME280;62245;48.070;7.874;2024-03-25T13:51:26;97651.09;;;17.18;40.78
73910;BME280;62245;48.070;7.874;2024-03-25T13:53:51;97651.19;;;17.08;40.14
73910;BME280;62245;48.070;7.874;2024-03-25T13:56:17;97641.97;;;17.38;40.66
73910;BME280;62245;48.070;7.874;2024-03-25T13:58:43;97639.41;;;17.28;39.74
73910;BME280;62245;48.070;7.874;2024-03-25T14:01:08;97630.88;;;17.40;40.54
73910;BME280;62245;48.070;7.874;2024-03-25T14:03:34;97623.84;;;17.44;41.47
73910;BME280;62245;48.070;7.874;2024-03-25T14:06:00;97619.25;;;17.20;39.97
73910;BME280;62245;48.070;7.874;2024-03-25T14:08:25;97616.13;;;17.37;41.01
73910;BME280;62245;48.070;7.874;2024-03-25T14:11:02;97608.75;;;17.43;39.51
73910;BME280;62245;48.070;7.874;2024-03-25T14:13:28;97594.22;;;16.91;37.73
73910;BME280;62245;48.070;7.874;2024-03-25T14:15:53;97593.72;;;16.89;38.81
73910;BME280;62245;48.070;7.874;2024-03-25T14:18:18;97591.00;;;16.65;38.98
73910;BME280;62245;48.070;7.874;2024-03-25T14:20:44;97576.56;;;16.80;40.51
73910;BME280;62245;48.070;7.874;2024-03-25T14:23:09;97581.81;;;16.95;39.88
73910;BME280;62245;48.070;7.874;2024-03-25T14:25:35;97570.97;;;17.00;39.38
73910;BME280;62245;48.070;7.874;2024-03-25T14:28:00;97573.09;;;17.03;40.23
73910;BME280;62245;48.070;7.874;2024-03-25T14:30:25;97561.16;;;17.09;39.58
73910;BME280;62245;48.070;7.874;2024-03-25T14:32:51;97560.75;;;16.97;39.31
73910;BME280;62245;48.070;7.874;2024-03-25T14:35:16;97558.69;;;17.13;39.41
73910;BME280;62245;48.070;7.874;2024-03-25T14:37:41;97561.34;;;17.18;39.80
73910;BME280;62245;48.070;7.874;2024-03-25T14:40:07;97551.09;;;17.20;38.41
73910;BME280;62245;48.070;7.874;2024-03-25T14:42:32;97553.47;;;17.21;38.84
73910;BME280;62245;48.070;7.874;2024-03-25T14:44:58;97547.06;;;17.17;39.11
73910;BME280;62245;48.070;7.874;2024-03-25T14:47:23;97542.34;;;17.04;39.93
73910;BME280;62245;48.070;7.874;2024-03-25T14:49:48;97542.47;;;17.18;39.09
73910;BME280;62245;48.070;7.874;2024-03-25T14:52:14;97546.06;;;16.55;38.32
73910;BME280;62245;48.070;7.874;2024-03-25T14:54:39;97541.97;;;16.68;40.10
73910;BME280;62245;48.070;7.874;2024-03-25T14:57:04;97534.63;;;16.74;40.45
73910;BME280;62245;48.070;7.874;2024-03-25T14:59:30;97540.00;;;16.74;41.07
73910;BME280;62245;48.070;7.874;2024-03-25T15:01:59;97529.84;;;16.66;40.40
73910;BME280;62245;48.070;7.874;2024-03-25T15:04:24;97534.44;;;16.65;38.77
73910;BME280;62245;48.070;7.874;2024-03-25T15:06:49;97528.28;;;16.59;38.23
73910;BME280;62245;48.070;7.874;2024-03-25T15:09:15;97523.47;;;16.85;39.07
73910;BME280;62245;48.070;7.874;2024-03-25T15:11:40;97527.94;;;16.95;39.19
73910;BME280;62245;48.070;7.874;2024-03-25T15:14:05;97505.78;;;16.98;39.26
73910;BME280;62245;48.070;7.874;2024-03-25T15:16:31;97506.50;;;16.85;38.32
73910;BME280;62245;48.070;7.874;2024-03-25T15:18:56;97504.94;;;16.79;38.35
73910;BME280;62245;48.070;7.874;2024-03-25T15:21:21;97503.16;;;16.69;37.38
73910;BME280;62245;48.070;7.874;2024-03-25T15:23:46;97504.34;;;16.29;37.71
73910;BME280;62245;48.070;7.874;2024-03-25T15:26:12;97495.59;;;16.13;38.45
73910;BME280;62245;48.070;7.874;2024-03-25T15:28:37;97498.19;;;16.23;39.97
73910;BME280;62245;48.070;7.874;2024-03-25T15:31:02;97491.16;;;15.99;39.99
73910;BME280;62245;48.070;7.874;2024-03-25T15:33:28;97495.06;;;15.82;39.79
73910;BME280;62245;48.070;7.874;2024-03-25T15:35:53;97483.25;;;15.78;39.84
73910;BME280;62245;48.070;7.874;2024-03-25T15:38:18;97483.56;;;15.72;40.68
73910;BME280;62245;48.070;7.874;2024-03-25T15:40:43;97480.50;;;15.83;39.51
73910;BME280;62245;48.070;7.874;2024-03-25T15:43:12;97481.41;;;15.69;39.07
73910;BME280;62245;48.070;7.874;2024-03-25T15:45:39;97467.59;;;15.41;38.59
73910;BME280;62245;48.070;7.874;2024-03-25T15:48:05;97458.06;;;15.20;39.01
73910;BME280;62245;48.070;7.874;2024-03-25T15:50:31;97463.16;;;15.22;39.33
73910;BME280;62245;48.070;7.874;2024-03-25T15:52:56;97461.16;;;14.93;39.43
73910;BME280;62245;48.070;7.874;2024-03-25T15:55:21;97455.41;;;15.10;39.90
73910;BME280;62245;48.070;7.874;2024-03-25T15:57:47;97448.69;;;15.13;39.41
73910;BME280;62245;48.070;7.874;2024-03-25T16:00:12;97450.16;;;15.34;42.10
73910;BME280;62245;48.070;7.874;2024-03-25T16:02:37;97447.31;;;15.15;41.16
73910;BME280;62245;48.070;7.874;2024-03-25T16:05:03;97435.75;;;15.20;41.29